Time;durP1;ratioP1;P1;durP2;ratioP2;P2;SDS_P1;SDS_P2;PMS_P1;PMS_P2;Temp;Humidity;BMP_temperature;BMP_pressure;BME280_temperature;BME280_humidity;BME280_pressure;Samples;Min_cycle;Max_cycle;Signal;HPM_P1;HPM_P2
2024/04/20 00:01:30;;;;;;;;;6.75;5.00;;;;;8.19;74.30;101520.66;5441488;26;44025;-60
2024/04/20 00:03:55;;;;;;;;;5.00;5.00;;;;;8.18;75.14;101518.94;5450042;26;67216;-59
2024/04/20 00:06:20;;;;;;;;;9.75;4.75;;;;;8.19;74.51;101520.66;5438213;26;57421;-60
2024/04/20 00:08:46;;;;;;;;;4.00;4.00;;;;;8.22;74.50;101530.22;5457554;26;65369;-60
2024/04/20 00:11:11;;;;;;;;;12.25;8.00;;;;;8.20;75.28;101527.59;5460454;26;44098;-60
2024/04/20 00:13:40;;;;;;;;;6.75;4.25;;;;;8.21;75.09;101531.94;5447653;26;44059;-59
2024/04/20 00:16:06;;;;;;;;;11.00;5.75;;;;;8.18;74.83;101530.22;5436555;26;43991;-61
2024/04/20 00:18:31;;;;;;;;;9.75;4.50;;;;;8.16;75.10;101531.06;5463143;25;44346;-58
2024/04/20 00:20:57;;;;;;;;;7.25;4.00;;;;;8.16;75.32;101528.47;5466710;25;44311;-60
2024/04/20 00:23:22;;;;;;;;;4.75;4.75;;;;;8.13;74.85;101531.97;5438704;26;64850;-61
2024/04/20 00:25:47;;;;;;;;;5.75;4.75;;;;;8.11;73.98;101533.72;5459453;25;74138;-59
2024/04/20 00:28:13;;;;;;;;;6.75;3.00;;;;;8.10;74.58;101533.72;5455236;25;66863;-62
2024/04/20 00:30:38;;;;;;;;;7.50;4.50;;;;;8.06;74.45;101534.63;5454011;26;43917;-61
2024/04/20 00:33:04;;;;;;;;;6.50;4.00;;;;;8.03;73.78;101539.84;5452053;26;43938;-58
2024/04/20 00:35:36;;;;;;;;;8.75;3.50;;;;;8.01;75.00;101538.97;5444065;26;43904;-60
2024/04/20 00:38:02;;;;;;;;;6.00;2.75;;;;;7.99;73.74;101534.63;5455507;26;44215;-60
2024/04/20 00:40:27;;;;;;;;;12.00;5.00;;;;;7.99;74.42;101537.22;5424040;26;43867;-60
2024/04/20 00:42:52;;;;;;;;;5.50;3.25;;;;;7.96;73.44;101542.44;5455881;25;71909;-59
2024/04/20 00:45:18;;;;;;;;;4.00;2.75;;;;;7.94;74.20;101532.91;5460788;26;66237;-61
2024/04/20 00:47:43;;;;;;;;;6.00;4.00;;;;;7.92;73.92;101530.31;5458823;25;71951;-60
2024/04/20 00:50:08;;;;;;;;;10.25;6.00;;;;;7.90;73.20;101539.00;5452242;26;55195;-59
2024/04/20 00:52:34;;;;;;;;;12.00;6.00;;;;;7.90;74.14;101533.81;5450062;26;71905;-60
2024/04/20 00:54:59;;;;;;;;;4.75;2.25;;;;;7.87;74.49;101537.25;5453452;26;68022;-58
2024/04/20 00:57:26;;;;;;;;;7.25;3.50;;;;;7.87;74.54;101534.66;5453957;26;70783;-58
2024/04/20 00:59:52;;;;;;;;;3.50;3.00;;;;;7.87;73.83;101539.00;5458124;26;65431;-58
2024/04/20 01:02:17;;;;;;;;;2.75;2.00;;;;;7.83;73.91;101530.34;5426089;26;44098;-60
2024/04/20 01:04:42;;;;;;;;;6.50;4.00;;;;;7.79;74.17;101539.91;5459037;26;73956;-61
2024/04/20 01:07:08;;;;;;;;;9.25;3.75;;;;;7.77;73.02;101535.56;5447844;26;52256;-61
2024/04/20 01:09:33;;;;;;;;;10.25;4.00;;;;;7.73;73.62;101539.03;5451603;26;52337;-60
2024/04/20 01:11:59;;;;;;;;;7.00;4.25;;;;;7.72;74.17;101538.19;5443045;26;44040;-60
2024/04/20 01:14:24;;;;;;;;;9.50;5.00;;;;;7.70;74.14;101539.94;5446082;26;75234;-61
2024/04/20 01:16:49;;;;;;;;;12.25;3.00;;;;;7.68;74.18;101546.84;5455530;26;48508;-61
2024/04/20 01:19:21;;;;;;;;;3.75;2.50;;;;;7.65;74.00;101538.19;5451661;26;68237;-60
2024/04/20 01:21:47;;;;;;;;;4.75;2.00;;;;;7.66;73.76;101542.53;5466010;25;43649;-60
2024/04/20 01:24:15;;;;;;;;;5.50;3.75;;;;;7.65;74.12;101549.50;5463425;25;44203;-60
2024/04/20 01:26:40;;;;;;;;;4.75;2.50;;;;;7.64;73.75;101552.09;5448964;26;43718;-60
2024/04/20 01:29:05;;;;;;;;;7.00;4.50;;;;;7.60;74.07;101549.50;5463331;26;60260;-60
2024/04/20 01:31:31;;;;;;;;;14.00;4.00;;;;;7.55;74.79;101543.41;5464542;25;71821;-59
2024/04/20 01:33:56;;;;;;;;;4.00;3.00;;;;;7.54;74.88;101546.03;5461393;25;57229;-59
2024/04/20 01:36:21;;;;;;;;;11.25;3.50;;;;;7.51;74.93;101548.66;5446285;26;57566;-60
2024/04/20 01:38:48;;;;;;;;;9.25;3.75;;;;;7.48;74.44;101539.09;5457161;26;64647;-59
2024/04/20 01:41:13;;;;;;;;;1.50;1.00;;;;;7.46;75.16;101551.25;5463779;26;43860;-60
2024/04/20 01:43:38;;;;;;;;;5.25;3.00;;;;;7.45;74.73;101546.03;5494748;25;72636;-61
2024/04/20 01:46:03;;;;;;;;;10.00;7.00;;;;;7.43;74.57;101553.00;5457815;25;62493;-60
2024/04/20 01:48:29;;;;;;;;;7.25;3.50;;;;;7.40;74.61;101552.13;5447119;26;66536;-59
2024/04/20 01:50:55;;;;;;;;;8.50;5.00;;;;;7.37;74.69;101556.47;5461335;26;61514;-60
2024/04/20 01:53:21;;;;;;;;;7.50;5.25;;;;;7.34;76.17;101556.47;5459903;26;46072;-59
2024/04/20 01:55:46;;;;;;;;;4.75;2.50;;;;;7.32;75.95;101558.22;5464474;25;43817;-59
2024/04/20 01:58:11;;;;;;;;;4.25;3.75;;;;;7.30;75.88;101559.94;5463124;25;64678;-58
2024/04/20 02:00:37;;;;;;;;;10.00;6.75;;;;;7.27;76.42;101560.78;5456328;25;72326;-60
2024/04/20 02:03:02;;;;;;;;;12.50;4.00;;;;;7.28;76.31;101562.53;5450237;26;62673;-57
2024/04/20 02:05:27;;;;;;;;;13.75;8.00;;;;;7.25;76.51;101569.50;5454580;26;67086;-58
2024/04/20 02:07:53;;;;;;;;;8.50;3.75;;;;;7.22;76.55;101567.72;5467210;25;44144;-56
2024/04/20 02:10:18;;;;;;;;;3.50;2.00;;;;;7.21;76.83;101573.81;5458372;25;65810;-59
2024/04/20 02:12:43;;;;;;;;;5.00;2.50;;;;;7.20;76.07;101561.66;5462345;25;43931;-59
2024/04/20 02:15:09;;;;;;;;;7.00;1.25;;;;;7.16;75.67;101560.78;5451619;25;73028;-59
2024/04/20 02:17:34;;;;;;;;;2.00;2.00;;;;;7.15;75.34;101571.19;5450781;25;65657;-60
2024/04/20 02:19:59;;;;;;;;;8.25;2.00;;;;;7.12;76.69;101579.00;5449402;26;71159;-60
2024/04/20 02:22:25;;;;;;;;;5.25;2.00;;;;;7.09;75.82;101579.03;5457373;26;74317;-59
2024/04/20 02:24:50;;;;;;;;;9.00;2.50;;;;;7.05;76.69;101580.75;5463752;25;72939;-59
2024/04/20 02:27:15;;;;;;;;;2.75;2.50;;;;;7.02;75.73;101585.94;5449265;25;69286;-59
2024/04/20 02:29:40;;;;;;;;;3.50;1.75;;;;;6.98;75.93;101590.28;5453857;26;66367;-59
2024/04/20 02:32:06;;;;;;;;;3.00;1.50;;;;;6.96;75.37;101586.81;5454968;26;44748;-59
2024/04/20 02:34:31;;;;;;;;;4.25;3.00;;;;;6.92;75.66;101585.03;5452507;25;70840;-59
2024/04/20 02:37:08;;;;;;;;;4.75;2.25;;;;;6.89;75.73;101579.88;5465503;25;48430;-58
2024/04/20 02:39:34;;;;;;;;;7.00;2.00;;;;;6.88;75.45;101583.31;5463075;25;44051;-59
2024/04/20 02:41:59;;;;;;;;;4.00;2.00;;;;;6.84;76.35;101584.19;5462511;26;44451;-59
2024/04/20 02:44:24;;;;;;;;;7.50;2.75;;;;;6.81;76.21;101584.16;5439517;25;72779;-59
2024/04/20 02:46:50;;;;;;;;;7.00;3.00;;;;;6.78;75.74;101584.16;5430242;26;66833;-59
2024/04/20 02:49:15;;;;;;;;;1.75;1.75;;;;;6.77;75.79;101582.44;5437192;26;65292;-59
2024/04/20 02:51:40;;;;;;;;;7.50;2.75;;;;;6.75;75.14;101586.78;5456691;26;74139;-58
2024/04/20 02:54:06;;;;;;;;;2.00;1.25;;;;;6.74;76.06;101587.63;5461699;26;43716;-59
2024/04/20 02:56:31;;;;;;;;;7.25;2.00;;;;;6.72;75.28;101591.97;5457165;25;43978;-58
2024/04/20 02:58:57;;;;;;;;;3.50;2.00;;;;;6.72;74.76;101594.56;5447485;26;44102;-59
2024/04/20 03:01:23;;;;;;;;;6.75;2.25;;;;;6.70;75.18;101602.34;5449007;26;43972;-59
2024/04/20 03:03:48;;;;;;;;;2.75;2.75;;;;;6.69;75.86;101597.16;5456578;26;44378;-57
2024/04/20 03:06:15;;;;;;;;;2.25;2.00;;;;;6.68;75.38;101592.81;5458143;26;44099;-58
2024/04/20 03:08:40;;;;;;;;;4.00;3.00;;;;;6.67;75.06;101598.88;5453808;26;43976;-57
2024/04/20 03:11:06;;;;;;;;;1.00;1.00;;;;;6.67;75.36;101606.69;5442041;26;46768;-58
2024/04/20 03:13:31;;;;;;;;;4.50;1.75;;;;;6.65;75.05;101604.06;5449753;26;44360;-60
2024/04/20 03:16:03;;;;;;;;;3.00;2.00;;;;;6.61;74.86;101595.38;5449929;26;68184;-60
2024/04/20 03:18:28;;;;;;;;;5.50;1.50;;;;;6.62;74.19;101609.25;5461440;26;43871;-59
2024/04/20 03:20:54;;;;;;;;;1.25;1.00;;;;;6.61;73.82;101607.53;5452807;26;44600;-59
2024/04/20 03:23:19;;;;;;;;;1.50;1.00;;;;;6.60;73.94;101611.84;5453888;26;44079;-58
2024/04/20 03:25:44;;;;;;;;;2.50;1.00;;;;;6.60;74.47;101617.03;5457093;26;64338;-59
2024/04/20 03:28:10;;;;;;;;;4.25;1.00;;;;;6.59;73.27;101611.88;5463410;25;71619;-59
2024/04/20 03:30:35;;;;;;;;;3.25;1.00;;;;;6.61;73.59;101610.13;5439461;25;74871;-59
2024/04/20 03:33:00;;;;;;;;;2.50;1.75;;;;;6.61;73.24;101618.78;5444816;26;43999;-60
2024/04/20 03:35:26;;;;;;;;;1.25;1.00;;;;;6.61;73.04;101615.34;5449934;26;67437;-59
2024/04/20 03:37:51;;;;;;;;;2.75;1.00;;;;;6.63;72.56;101619.66;5452595;26;65590;-59
2024/04/20 03:40:16;;;;;;;;;2.00;1.75;;;;;6.64;73.50;101621.41;5457096;26;64843;-60
2024/04/20 03:42:42;;;;;;;;;2.75;1.25;;;;;6.63;72.83;101618.81;5460117;25;43850;-59
2024/04/20 03:45:07;;;;;;;;;2.50;1.00;;;;;6.67;72.37;101619.69;5463672;25;68916;-58
2024/04/20 03:47:32;;;;;;;;;1.25;1.25;;;;;6.67;72.14;101630.94;5442205;26;44881;-59
2024/04/20 03:49:58;;;;;;;;;1.25;1.25;;;;;6.67;72.55;101630.94;5434132;26;71734;-60
2024/04/20 03:52:23;;;;;;;;;2.50;1.00;;;;;6.65;72.56;101630.94;5464053;25;69581;-59
2024/04/20 03:54:48;;;;;;;;;2.75;1.00;;;;;6.64;72.55;101633.56;5458837;25;59646;-59
2024/04/20 03:57:14;;;;;;;;;3.25;1.00;;;;;6.62;72.67;101638.75;5464859;25;72212;-59
2024/04/20 03:59:39;;;;;;;;;3.50;1.25;;;;;6.62;71.66;101638.75;5463355;25;74234;-58
2024/04/20 04:02:04;;;;;;;;;0.75;0.00;;;;;6.62;72.13;101643.06;5448480;26;43875;-58
2024/04/20 04:04:30;;;;;;;;;2.25;1.00;;;;;6.62;72.27;101643.97;5460586;25;68308;-58
2024/04/20 04:06:55;;;;;;;;;1.75;1.00;;;;;6.60;72.84;101642.19;5447242;25;44044;-58
2024/04/20 04:09:20;;;;;;;;;2.50;1.00;;;;;6.59;72.37;101654.34;5463179;26;43882;-59
2024/04/20 04:11:46;;;;;;;;;2.00;1.00;;;;;6.56;72.39;101643.91;5464660;25;72052;-58
2024/04/20 04:14:11;;;;;;;;;2.00;1.00;;;;;6.53;72.19;101645.63;5459872;26;43831;-56
2024/04/20 04:16:37;;;;;;;;;1.75;0.50;;;;;6.53;71.66;101658.63;5446673;26;45745;-58
2024/04/20 04:19:02;;;;;;;;;5.00;1.50;;;;;6.50;72.77;101648.22;5436233;25;70998;-59
2024/04/20 04:21:30;;;;;;;;;3.00;2.00;;;;;6.49;72.12;101654.28;5435741;26;44029;-60
2024/04/20 04:23:56;;;;;;;;;1.00;0.75;;;;;6.47;72.16;101649.06;5457485;26;44028;-58
2024/04/20 04:26:23;;;;;;;;;1.00;1.00;;;;;6.45;72.66;101658.59;5459263;25;43858;-59
2024/04/20 04:28:48;;;;;;;;;7.00;1.75;;;;;6.46;72.67;101661.22;5463593;25;44793;-60
2024/04/20 04:31:13;;;;;;;;;0.50;0.50;;;;;6.43;72.21;101663.78;5456854;25;43683;-59
2024/04/20 04:33:39;;;;;;;;;2.00;0.75;;;;;6.41;72.23;101662.94;5445799;26;43859;-59
2024/04/20 04:36:05;;;;;;;;;0.50;0.00;;;;;6.41;72.32;101659.44;5449590;26;63056;-59
2024/04/20 04:38:30;;;;;;;;;2.50;1.75;;;;;6.40;72.30;101671.56;5448348;25;45010;-59
2024/04/20 04:40:55;;;;;;;;;3.50;1.25;;;;;6.39;72.62;101661.16;5451490;26;43869;-60
2024/04/20 04:43:21;;;;;;;;;1.00;0.25;;;;;6.37;71.82;101668.94;5463184;26;55952;-59
2024/04/20 04:45:47;;;;;;;;;4.50;1.00;;;;;6.35;72.65;101673.28;5453231;26;59672;-59
2024/04/20 04:48:17;;;;;;;;;1.75;1.00;;;;;6.33;71.27;101679.34;5464475;26;45015;-60
2024/04/20 04:50:43;;;;;;;;;5.00;1.25;;;;;6.26;71.81;101681.88;5439539;25;44398;-60
2024/04/20 04:53:08;;;;;;;;;3.50;1.00;;;;;6.25;71.68;101681.88;5440969;26;43934;-60
2024/04/20 04:55:34;;;;;;;;;3.50;1.00;;;;;6.23;72.14;101684.50;5450459;26;69329;-60
2024/04/20 04:57:59;;;;;;;;;1.50;1.00;;;;;6.21;72.57;101685.31;5461584;25;44638;-59
2024/04/20 05:00:24;;;;;;;;;4.00;1.00;;;;;6.20;72.77;101691.41;5459179;26;69187;-59
2024/04/20 05:02:50;;;;;;;;;2.75;1.50;;;;;6.18;72.43;101698.28;5455105;26;66864;-59
2024/04/20 05:05:15;;;;;;;;;7.50;1.00;;;;;6.15;71.59;101693.97;5456552;26;72826;-59
2024/04/20 05:07:42;;;;;;;;;1.00;0.75;;;;;6.12;72.67;101701.72;5462649;25;43713;-59
2024/04/20 05:10:07;;;;;;;;;1.00;1.00;;;;;6.10;72.54;101697.38;5462910;25;43696;-59
2024/04/20 05:12:33;;;;;;;;;1.00;1.00;;;;;6.12;71.66;101714.72;5463493;25;44038;-59
2024/04/20 05:14:58;;;;;;;;;3.00;1.00;;;;;6.13;72.71;101713.00;5443094;25;71474;-59
2024/04/20 05:17:23;;;;;;;;;2.25;1.00;;;;;6.11;72.22;101715.59;5454922;25;46699;-58
2024/04/20 05:19:49;;;;;;;;;2.25;1.00;;;;;6.13;72.01;101726.88;5457638;26;72026;-56
2024/04/20 05:22:14;;;;;;;;;0.75;0.75;;;;;6.12;71.91;101732.03;5457541;26;63662;-58
2024/04/20 05:24:39;;;;;;;;;2.00;1.00;;;;;6.12;72.30;101732.91;5461917;25;51024;-59
2024/04/20 05:27:05;;;;;;;;;5.25;2.00;;;;;6.13;72.69;101732.06;5461181;25;74426;-59
2024/04/20 05:29:30;;;;;;;;;2.00;1.75;;;;;6.15;72.60;101737.28;5461104;25;53913;-59
2024/04/20 05:31:56;;;;;;;;;1.25;1.25;;;;;6.14;72.27;101735.53;5445813;25;68198;-60
2024/04/20 05:34:21;;;;;;;;;2.25;1.00;;;;;6.14;72.83;101740.72;5444668;25;43994;-59
2024/04/20 05:36:47;;;;;;;;;5.75;2.00;;;;;6.20;72.19;101748.59;5491421;25;53819;-59
2024/04/20 05:39:15;;;;;;;;;4.00;1.00;;;;;6.21;72.97;101735.56;5458473;25;43778;-59
2024/04/20 05:41:41;;;;;;;;;1.25;1.25;;;;;6.26;71.62;101751.22;5455063;25;44000;-60
2024/04/20 05:44:06;;;;;;;;;8.75;3.25;;;;;6.29;72.03;101756.44;5444944;26;44052;-59
2024/04/20 05:46:32;;;;;;;;;6.75;1.50;;;;;6.32;72.87;101756.47;5431141;26;72861;-59
2024/04/20 05:48:58;;;;;;;;;1.75;1.75;;;;;6.37;72.77;101764.28;5430388;26;43803;-59
2024/04/20 05:51:23;;;;;;;;;3.00;1.50;;;;;6.38;72.42;101766.91;5428732;26;43842;-59
2024/04/20 05:53:48;;;;;;;;;1.00;0.50;;;;;6.39;71.53;101775.56;5435248;26;69530;-58
2024/04/20 05:56:14;;;;;;;;;0.50;0.50;;;;;6.39;72.20;101771.25;5448806;26;43902;-59
2024/04/20 05:58:39;;;;;;;;;3.25;1.00;;;;;6.39;71.87;101776.44;5426829;26;43826;-59
2024/04/20 06:01:05;;;;;;;;;1.00;1.00;;;;;6.37;71.75;101779.88;5428177;26;65562;-59
2024/04/20 06:03:30;;;;;;;;;0.75;0.25;;;;;6.37;71.23;101774.69;5442201;26;71831;-59
2024/04/20 06:05:55;;;;;;;;;1.50;1.50;;;;;6.38;71.78;101782.50;5439238;26;45678;-62
2024/04/20 06:08:21;;;;;;;;;2.50;0.75;;;;;6.42;71.62;101780.78;5438674;25;43777;-60
2024/04/20 06:10:56;;;;;;;;;6.50;1.00;;;;;6.44;70.48;101779.91;5467233;25;43799;-59
2024/04/20 06:13:22;;;;;;;;;3.00;0.00;;;;;6.48;70.00;101786.03;5457843;25;44000;-60
2024/04/20 06:15:47;;;;;;;;;0.75;0.75;;;;;6.54;69.68;101793.88;5432399;26;44019;-60
2024/04/20 06:18:13;;;;;;;;;1.00;1.00;;;;;6.59;70.37;101796.53;5431290;26;43845;-59
2024/04/20 06:20:40;;;;;;;;;3.75;1.00;;;;;6.64;70.65;101793.09;5434752;26;43903;-59
2024/04/20 06:23:06;;;;;;;;;3.25;1.00;;;;;6.72;70.58;101798.31;5441363;25;43835;-56
2024/04/20 06:25:31;;;;;;;;;2.25;1.00;;;;;6.77;69.69;101793.16;5453214;26;44237;-57
2024/04/20 06:27:57;;;;;;;;;1.25;1.00;;;;;6.82;69.38;101792.31;5443422;25;43906;-58
2024/04/20 06:30:22;;;;;;;;;4.75;2.00;;;;;6.84;69.23;101792.31;5444261;26;64612;-58
2024/04/20 06:32:49;;;;;;;;;6.00;1.75;;;;;6.83;69.20;101793.16;5455343;26;50714;-59
2024/04/20 06:35:15;;;;;;;;;10.00;2.50;;;;;6.82;68.54;101794.06;5443956;26;44843;-59
2024/04/20 06:37:40;;;;;;;;;4.00;2.00;;;;;6.81;68.66;101795.75;5440981;26;43850;-59
2024/04/20 06:40:06;;;;;;;;;4.00;1.00;;;;;6.84;69.53;101797.53;5449079;26;68841;-60
2024/04/20 06:42:31;;;;;;;;;2.00;0.00;;;;;6.91;68.56;101807.09;5431511;26;43874;-63
2024/04/20 06:44:57;;;;;;;;;2.50;1.00;;;;;7.01;68.64;101808.00;5436500;26;67624;-61
2024/04/20 06:47:22;;;;;;;;;6.00;1.00;;;;;7.09;68.39;101808.06;5448864;25;44159;-56
2024/04/20 06:49:54;;;;;;;;;2.00;1.00;;;;;7.19;67.94;101825.47;5455086;26;43903;-65
2024/04/20 06:52:19;;;;;;;;;1.00;1.00;;;;;7.28;68.31;101824.63;5441431;26;44254;-66
2024/04/20 06:54:45;;;;;;;;;3.25;1.00;;;;;7.35;67.98;101827.28;5454521;26;45892;-67
2024/04/20 06:57:11;;;;;;;;;6.50;2.75;;;;;7.41;66.48;101829.88;5458518;26;70845;-66
2024/04/20 06:59:36;;;;;;;;;1.50;1.50;;;;;7.43;66.81;101816.88;5440541;26;44033;-67
2024/04/20 07:02:02;;;;;;;;;3.00;2.00;;;;;7.49;66.82;101834.25;5428522;26;44331;-67
2024/04/20 07:04:27;;;;;;;;;1.25;1.00;;;;;7.52;66.42;101836.88;5445114;26;67636;-67
2024/04/20 07:06:52;;;;;;;;;2.25;1.00;;;;;7.50;66.32;101826.44;5439313;26;47281;-67
2024/04/20 07:09:18;;;;;;;;;2.25;2.00;;;;;7.54;65.92;101842.94;5451090;26;62960;-66
2024/04/20 07:11:43;;;;;;;;;2.50;1.00;;;;;7.57;66.88;101843.84;5432875;25;43789;-68
2024/04/20 07:14:09;;;;;;;;;2.00;0.75;;;;;7.63;66.60;101847.31;5433165;26;74279;-67
2024/04/20 07:16:34;;;;;;;;;3.25;2.00;;;;;7.68;65.50;101853.41;5491880;25;43821;-66
2024/04/20 07:18:59;;;;;;;;;1.75;0.75;;;;;7.72;65.96;101855.16;5437203;26;62534;-66
2024/04/20 07:21:25;;;;;;;;;3.00;1.50;;;;;7.76;66.07;101864.75;5462238;25;43669;-67
2024/04/20 07:23:50;;;;;;;;;3.00;1.00;;;;;7.81;66.03;101855.22;5433109;26;56320;-66
2024/04/20 07:26:15;;;;;;;;;3.00;0.50;;;;;7.88;65.66;101856.97;5417060;26;58835;-67
2024/04/20 07:28:41;;;;;;;;;5.25;1.25;;;;;7.96;65.74;101867.41;5438741;25;64610;-67
2024/04/20 07:31:06;;;;;;;;;3.00;1.00;;;;;7.99;65.43;101867.41;5451511;26;43999;-69
2024/04/20 07:33:32;;;;;;;;;1.50;1.00;;;;;7.97;66.29;101862.19;5453100;26;44808;-69
2024/04/20 07:35:57;;;;;;;;;3.00;1.00;;;;;7.99;64.86;101864.81;5435105;26;43963;-75
2024/04/20 07:38:23;;;;;;;;;1.00;1.00;;;;;7.99;65.50;101863.06;5453251;26;43745;-74
2024/04/20 07:40:49;;;;;;;;;3.00;1.00;;;;;8.03;65.27;101869.16;5463794;26;44087;-74
2024/04/20 07:43:15;;;;;;;;;2.50;0.00;;;;;8.06;65.21;101866.56;5466596;25;43817;-72
2024/04/20 07:45:40;;;;;;;;;5.75;1.00;;;;;8.12;65.14;101863.94;5464209;25;43841;-61
2024/04/20 07:48:07;;;;;;;;;5.25;1.00;;;;;8.23;64.78;101863.94;5428660;26;53899;-63
2024/04/20 07:50:32;;;;;;;;;1.25;1.25;;;;;8.32;65.19;101863.97;5465457;26;44076;-63
2024/04/20 07:52:57;;;;;;;;;0.00;0.00;;;;;8.46;65.08;101860.53;5453027;25;74072;-63
2024/04/20 07:55:22;;;;;;;;;2.00;1.00;;;;;8.55;65.33;101853.56;5452970;25;71866;-72
2024/04/20 07:57:48;;;;;;;;;4.00;1.75;;;;;8.66;64.10;101870.97;5448057;26;44156;-63
2024/04/20 08:00:13;;;;;;;;;2.50;1.75;;;;;8.72;64.18;101869.19;5443180;25;43803;-65
2024/04/20 08:02:39;;;;;;;;;3.75;2.00;;;;;8.84;63.87;101857.88;5438328;26;44868;-65
2024/04/20 08:05:06;;;;;;;;;0.00;0.00;;;;;8.96;64.02;101863.94;5466441;25;43723;-63
2024/04/20 08:07:31;;;;;;;;;0.50;0.00;;;;;9.07;63.04;101873.50;5452712;25;46941;-64
2024/04/20 08:09:56;;;;;;;;;4.25;2.25;;;;;9.16;63.00;101875.22;5452061;26;43695;-65
2024/04/20 08:12:22;;;;;;;;;1.00;1.00;;;;;9.28;62.41;101882.16;5446553;26;71341;-65
2024/04/20 08:14:48;;;;;;;;;17.25;12.00;;;;;9.35;62.97;101886.50;5440783;25;52966;-65
2024/04/20 08:17:13;;;;;;;;;2.00;2.00;;;;;9.38;61.89;101885.59;5451570;26;43647;-65
2024/04/20 08:19:38;;;;;;;;;3.25;2.00;;;;;9.32;62.30;101897.78;5455671;26;44057;-66
2024/04/20 08:22:04;;;;;;;;;3.00;1.00;;;;;9.32;62.78;101892.56;5460582;25;44780;-71
2024/04/20 08:24:31;;;;;;;;;1.25;0.50;;;;;9.31;62.28;101896.09;5444533;26;43814;-71
2024/04/20 08:26:56;;;;;;;;;3.25;2.75;;;;;9.41;62.08;101896.91;5453405;25;43993;-70
2024/04/20 08:29:21;;;;;;;;;3.25;1.00;;;;;9.52;61.19;101906.44;5471528;25;43865;-71
2024/04/20 08:31:47;;;;;;;;;5.00;1.25;;;;;9.58;61.05;101899.47;5457267;26;65206;-72
2024/04/20 08:34:12;;;;;;;;;2.25;1.00;;;;;9.59;60.27;101906.41;5428526;26;70835;-72
2024/04/20 08:36:37;;;;;;;;;3.50;0.25;;;;;9.60;60.62;101907.31;5452558;26;63364;-71
2024/04/20 08:39:03;;;;;;;;;4.00;1.25;;;;;9.63;60.78;101899.44;5463652;25;69766;-71
2024/04/20 08:41:32;;;;;;;;;2.25;0.50;;;;;9.70;61.14;101906.38;5453691;26;43762;-70
2024/04/20 08:44:00;;;;;;;;;4.00;1.00;;;;;9.64;59.57;101902.03;5436308;26;43848;-71
2024/04/20 08:46:26;;;;;;;;;1.75;1.50;;;;;9.64;59.87;101907.25;5444143;26;43879;-71
2024/04/20 08:48:54;;;;;;;;;2.00;2.00;;;;;9.67;59.46;101909.00;5462534;26;71122;-70
2024/04/20 08:51:21;;;;;;;;;6.50;1.00;;;;;9.73;59.57;101908.09;5464386;25;43911;-71
2024/04/20 08:53:47;;;;;;;;;2.00;0.00;;;;;9.82;59.59;101906.31;5440572;25;43696;-72
2024/04/20 08:56:13;;;;;;;;;2.50;1.00;;;;;9.98;59.52;101914.06;5454210;26;43974;-69
2024/04/20 08:58:38;;;;;;;;;4.00;1.00;;;;;10.16;58.88;101911.34;5462519;26;53496;-71
2024/04/20 09:01:05;;;;;;;;;7.00;1.00;;;;;10.32;58.53;101916.50;5460127;25;44909;-71
2024/04/20 09:03:31;;;;;;;;;1.75;1.00;;;;;10.41;59.17;101909.47;5488285;25;44363;-72
2024/04/20 09:05:57;;;;;;;;;5.25;1.50;;;;;10.59;58.58;101918.06;5448586;26;44259;-72
2024/04/20 09:08:23;;;;;;;;;2.00;0.00;;;;;10.62;58.36;101910.19;5460123;26;43878;-72
2024/04/20 09:10:49;;;;;;;;;2.50;2.00;;;;;10.68;58.35;101919.72;5456621;25;45086;-71
2024/04/20 09:13:18;;;;;;;;;3.75;2.00;;;;;10.73;57.65;101921.44;5449832;25;43849;-72
2024/04/20 09:15:45;;;;;;;;;4.25;2.00;;;;;10.68;57.57;101922.34;5432232;26;43898;-70
2024/04/20 09:18:10;;;;;;;;;2.75;2.00;;;;;10.67;57.36;101925.84;5462374;25;43822;-72
2024/04/20 09:20:36;;;;;;;;;1.50;1.50;;;;;10.72;56.61;101924.94;5465769;25;71572;-69
2024/04/20 09:23:05;;;;;;;;;1.50;0.75;;;;;10.80;55.88;101925.75;5439383;25;44590;-71
2024/04/20 09:25:31;;;;;;;;;2.25;2.00;;;;;10.77;55.30;101924.91;5468088;26;43851;-72
2024/04/20 09:27:59;;;;;;;;;5.00;2.00;;;;;10.70;55.47;101923.22;5467876;25;43642;-71
2024/04/20 09:30:25;;;;;;;;;6.00;2.00;;;;;10.70;55.75;101929.31;5489838;25;44976;-72
2024/04/20 09:32:50;;;;;;;;;3.00;1.25;;;;;10.75;55.33;101931.91;5452223;26;44348;-72
2024/04/20 09:35:18;;;;;;;;;2.00;1.25;;;;;10.83;56.11;101927.44;5430712;26;44085;-73
2024/04/20 09:37:44;;;;;;;;;2.00;2.00;;;;;10.96;55.10;101926.47;5451649;26;44064;-71
2024/04/20 09:40:09;;;;;;;;;6.00;1.25;;;;;11.05;55.30;101929.88;5434679;25;44873;-71
2024/04/20 09:42:35;;;;;;;;;5.75;3.00;;;;;11.15;55.21;101927.13;5433743;25;43709;-72
2024/04/20 09:45:04;;;;;;;;;1.25;1.25;;;;;11.32;54.85;101929.59;5463240;25;65390;-69
2024/04/20 09:47:37;;;;;;;;;3.75;1.00;;;;;11.37;54.52;101935.66;5443632;25;43851;-69
2024/04/20 09:50:10;;;;;;;;;4.00;2.00;;;;;11.40;53.99;101926.88;5431261;26;43834;-68
2024/04/20 09:52:49;;;;;;;;;2.00;1.75;;;;;11.45;53.49;101921.59;5432917;26;44498;-69
2024/04/20 09:55:34;;;;;;;;;1.75;1.25;;;;;11.53;53.62;101917.13;5466262;26;43963;-70
2024/04/20 09:58:02;;;;;;;;;3.50;2.00;;;;;11.61;53.13;101919.66;5450592;26;44075;-69
2024/04/20 10:00:36;;;;;;;;;1.50;1.50;;;;;11.64;53.09;101920.50;5492738;25;44818;-69
2024/04/20 10:03:04;;;;;;;;;4.00;3.75;;;;;11.71;52.60;101926.53;5461827;26;43892;-71
2024/04/20 10:05:32;;;;;;;;;3.75;1.00;;;;;11.72;52.50;101926.50;5440174;25;43796;-71
2024/04/20 10:07:58;;;;;;;;;2.00;1.00;;;;;11.68;52.02;101924.78;5456425;26;44100;-69
2024/04/20 10:10:25;;;;;;;;;2.50;0.00;;;;;11.66;51.89;101937.06;5467045;25;45045;-64
2024/04/20 10:12:51;;;;;;;;;2.00;1.25;;;;;11.52;52.77;101928.50;5459079;26;44172;-76
2024/04/20 10:15:16;;;;;;;;;1.00;1.00;;;;;11.38;52.14;101931.28;5452842;26;54936;-69
2024/04/20 10:17:42;;;;;;;;;89.25;70.50;;;;;11.28;52.30;101927.91;5440451;26;72984;-71
2024/04/20 10:20:07;;;;;;;;;2.00;1.00;;;;;11.30;52.97;101935.75;5432217;26;55771;-67
2024/04/20 10:22:38;;;;;;;;;7.00;4.00;;;;;11.27;53.32;101939.25;5447294;26;43876;-69
2024/04/20 10:25:10;;;;;;;;;4.75;1.75;;;;;11.20;53.54;101940.19;5439349;25;44009;-68
2024/04/20 10:27:36;;;;;;;;;3.00;2.00;;;;;11.25;53.33;101943.66;5449427;26;44053;-69
2024/04/20 10:30:21;;;;;;;;;3.50;2.00;;;;;11.44;53.31;101935.56;5491030;25;45385;-68
2024/04/20 10:32:50;;;;;;;;;3.50;1.00;;;;;11.54;53.04;101938.09;5458175;26;44411;-69
2024/04/20 10:35:20;;;;;;;;;3.25;1.75;;;;;11.58;53.05;101941.56;5460542;25;44205;-70
2024/04/20 10:37:56;;;;;;;;;6.50;3.25;;;;;11.50;52.92;101940.75;5449567;25;44001;-64
2024/04/20 10:40:31;;;;;;;;;8.25;3.00;;;;;11.42;53.45;101942.59;5454266;25;43949;-65
2024/04/20 10:43:20;;;;;;;;;2.75;2.50;;;;;11.35;52.80;101939.16;5439660;25;44332;-71
2024/04/20 10:45:46;;;;;;;;;5.00;3.25;;;;;11.22;53.54;101941.06;5457405;26;44058;-68
2024/04/20 10:48:16;;;;;;;;;5.75;3.00;;;;;11.08;53.99;101949.03;5444586;25;44001;-69
2024/04/20 10:50:43;;;;;;;;;6.00;4.00;;;;;10.95;54.59;101942.19;5438886;26;44880;-63
2024/04/20 10:53:16;;;;;;;;;3.00;2.25;;;;;10.97;54.65;101940.44;5443696;25;44172;-70
2024/04/20 10:55:41;;;;;;;;;3.25;3.00;;;;;11.05;54.98;101942.97;5466998;26;43735;-70
2024/04/20 10:58:07;;;;;;;;;7.25;4.75;;;;;11.14;54.80;101943.75;5438024;26;43910;-62
2024/04/20 11:00:32;;;;;;;;;5.50;3.50;;;;;11.29;54.80;101952.34;5460075;26;74259;-64
2024/04/20 11:02:58;;;;;;;;;2.00;1.25;;;;;11.42;53.88;101948.72;5465916;25;70746;-61
2024/04/20 11:05:24;;;;;;;;;5.25;1.75;;;;;11.54;53.22;101948.59;5465609;25;57755;-68
2024/04/20 11:08:01;;;;;;;;;4.00;3.50;;;;;11.68;53.76;101945.78;5453201;26;43847;-68
2024/04/20 11:10:30;;;;;;;;;11.00;6.00;;;;;11.82;53.65;101935.13;5451825;26;44326;-77
2024/04/20 11:13:02;;;;;;;;;36.50;25.50;;;;;11.91;52.01;101937.66;5460617;26;43928;-69
2024/04/20 11:15:32;;;;;;;;;4.00;3.00;;;;;11.89;52.44;101939.41;5460567;26;43993;-67
2024/04/20 11:17:58;;;;;;;;;4.00;3.00;;;;;11.74;51.97;101937.00;5451227;26;44028;-70
2024/04/20 11:20:24;;;;;;;;;3.75;2.75;;;;;11.56;51.86;101935.44;5425220;26;46851;-64
2024/04/20 11:22:52;;;;;;;;;3.25;2.00;;;;;11.33;52.58;101939.22;5455713;26;44291;-65
2024/04/20 11:25:17;;;;;;;;;2.50;2.25;;;;;11.26;52.39;101942.78;5445311;26;44228;-65
2024/04/20 11:27:49;;;;;;;;;4.00;2.00;;;;;11.26;52.70;101957.59;5465193;25;43800;-65